sensor_id;sensor_type;location;lat;lon;timestamp;temperature;humidity
69932;DHT22;57243;52.064;5.116;2023-05-07T00:00:04;18.50;69.10
69932;DHT22;57243;52.064;5.116;2023-05-07T00:02:33;18.50;69.00
69932;DHT22;57243;52.064;5.116;2023-05-07T00:04:58;18.50;69.00
69932;DHT22;57243;52.064;5.116;2023-05-07T00:07:24;18.50;69.10
69932;DHT22;57243;52.064;5.116;2023-05-07T00:09:49;18.50;69.10
69932;DHT22;57243;52.064;5.116;2023-05-07T00:12:15;18.50;69.10
69932;DHT22;57243;52.064;5.116;2023-05-07T00:14:40;18.50;69.00
69932;DHT22;57243;52.064;5.116;2023-05-07T00:17:06;18.50;69.10
69932;DHT22;57243;52.064;5.116;2023-05-07T00:19:31;18.50;69.10
69932;DHT22;57243;52.064;5.116;2023-05-07T00:21:57;18.50;69.10
69932;DHT22;57243;52.064;5.116;2023-05-07T00:24:23;18.50;69.10
69932;DHT22;57243;52.064;5.116;2023-05-07T00:26:49;18.50;69.10
69932;DHT22;57243;52.064;5.116;2023-05-07T00:29:14;18.50;69.00
69932;DHT22;57243;52.064;5.116;2023-05-07T00:31:40;18.50;69.10
69932;DHT22;57243;52.064;5.116;2023-05-07T00:34:05;18.50;69.10
69932;DHT22;57243;52.064;5.116;2023-05-07T00:36:31;18.50;69.00
69932;DHT22;57243;52.064;5.116;2023-05-07T00:38:57;18.50;69.10
69932;DHT22;57243;52.064;5.116;2023-05-07T00:41:25;18.50;69.20
69932;DHT22;57243;52.064;5.116;2023-05-07T00:43:51;18.50;69.10
69932;DHT22;57243;52.064;5.116;2023-05-07T00:46:20;18.50;69.10
69932;DHT22;57243;52.064;5.116;2023-05-07T00:48:45;18.50;69.10
69932;DHT22;57243;52.064;5.116;2023-05-07T00:51:11;18.50;69.20
69932;DHT22;57243;52.064;5.116;2023-05-07T00:53:37;18.50;69.20
69932;DHT22;57243;52.064;5.116;2023-05-07T00:56:03;18.50;69.20
69932;DHT22;57243;52.064;5.116;2023-05-07T00:58:29;18.40;69.20
69932;DHT22;57243;52.064;5.116;2023-05-07T01:00:55;18.50;69.30
69932;DHT22;57243;52.064;5.116;2023-05-07T01:03:21;18.40;69.30
69932;DHT22;57243;52.064;5.116;2023-05-07T01:05:46;18.50;69.20
69932;DHT22;57243;52.064;5.116;2023-05-07T01:08:13;18.40;69.30
69932;DHT22;57243;52.064;5.116;2023-05-07T01:10:39;18.40;69.30
69932;DHT22;57243;52.064;5.116;2023-05-07T01:13:11;18.50;69.30
69932;DHT22;57243;52.064;5.116;2023-05-07T01:15:37;18.50;69.30
69932;DHT22;57243;52.064;5.116;2023-05-07T01:18:03;18.40;69.30
69932;DHT22;57243;52.064;5.116;2023-05-07T01:20:29;18.40;69.40
69932;DHT22;57243;52.064;5.116;2023-05-07T01:22:54;18.40;69.40
69932;DHT22;57243;52.064;5.116;2023-05-07T01:25:21;18.40;69.30
69932;DHT22;57243;52.064;5.116;2023-05-07T01:27:47;18.40;69.40
69932;DHT22;57243;52.064;5.116;2023-05-07T01:30:12;18.40;69.40
69932;DHT22;57243;52.064;5.116;2023-05-07T01:32:48;18.40;69.40
69932;DHT22;57243;52.064;5.116;2023-05-07T01:35:26;18.40;69.40
69932;DHT22;57243;52.064;5.116;2023-05-07T01:37:53;18.40;69.40
69932;DHT22;57243;52.064;5.116;2023-05-07T01:40:19;18.40;69.40
69932;DHT22;57243;52.064;5.116;2023-05-07T01:42:45;18.40;69.30
69932;DHT22;57243;52.064;5.116;2023-05-07T01:45:11;18.40;69.30
69932;DHT22;57243;52.064;5.116;2023-05-07T01:47:37;18.40;69.40
69932;DHT22;57243;52.064;5.116;2023-05-07T01:50:03;18.40;69.40
69932;DHT22;57243;52.064;5.116;2023-05-07T01:52:29;18.50;69.30
69932;DHT22;57243;52.064;5.116;2023-05-07T01:54:55;18.50;69.40
69932;DHT22;57243;52.064;5.116;2023-05-07T01:57:20;18.50;69.30
69932;DHT22;57243;52.064;5.116;2023-05-07T01:59:46;18.40;69.40
69932;DHT22;57243;52.064;5.116;2023-05-07T02:02:11;18.40;69.40
69932;DHT22;57243;52.064;5.116;2023-05-07T02:04:37;18.40;69.40
69932;DHT22;57243;52.064;5.116;2023-05-07T02:07:02;18.50;69.30
69932;DHT22;57243;52.064;5.116;2023-05-07T02:09:28;18.50;69.40
69932;DHT22;57243;52.064;5.116;2023-05-07T02:11:53;18.40;69.40
69932;DHT22;57243;52.064;5.116;2023-05-07T02:14:18;18.40;69.40
69932;DHT22;57243;52.064;5.116;2023-05-07T02:16:45;18.40;69.30
69932;DHT22;57243;52.064;5.116;2023-05-07T02:19:10;18.40;69.40
69932;DHT22;57243;52.064;5.116;2023-05-07T02:21:36;18.50;69.40
69932;DHT22;57243;52.064;5.116;2023-05-07T02:24:01;18.50;69.40
69932;DHT22;57243;52.064;5.116;2023-05-07T02:26:27;18.40;69.50
69932;DHT22;57243;52.064;5.116;2023-05-07T02:28:52;18.40;69.40
69932;DHT22;57243;52.064;5.116;2023-05-07T02:31:19;18.40;69.50
69932;DHT22;57243;52.064;5.116;2023-05-07T02:33:44;18.40;69.50
69932;DHT22;57243;52.064;5.116;2023-05-07T02:36:10;18.50;69.50
69932;DHT22;57243;52.064;5.116;2023-05-07T02:38:36;18.40;69.50
69932;DHT22;57243;52.064;5.116;2023-05-07T02:41:02;18.40;69.50
69932;DHT22;57243;52.064;5.116;2023-05-07T02:43:27;18.40;69.40
69932;DHT22;57243;52.064;5.116;2023-05-07T02:48:45;18.40;69.50
69932;DHT22;57243;52.064;5.116;2023-05-07T02:51:10;18.40;69.40
69932;DHT22;57243;52.064;5.116;2023-05-07T02:53:36;18.40;69.40
69932;DHT22;57243;52.064;5.116;2023-05-07T02:56:02;18.40;69.40
69932;DHT22;57243;52.064;5.116;2023-05-07T02:58:27;18.50;69.50
69932;DHT22;57243;52.064;5.116;2023-05-07T03:00:53;18.40;69.50
69932;DHT22;57243;52.064;5.116;2023-05-07T03:03:20;18.40;69.60
69932;DHT22;57243;52.064;5.116;2023-05-07T03:05:45;18.40;69.60
69932;DHT22;57243;52.064;5.116;2023-05-07T03:08:11;18.40;69.60
69932;DHT22;57243;52.064;5.116;2023-05-07T03:10:37;18.40;69.60
69932;DHT22;57243;52.064;5.116;2023-05-07T03:13:02;18.40;69.60
69932;DHT22;57243;52.064;5.116;2023-05-07T03:15:28;18.40;69.60
69932;DHT22;57243;52.064;5.116;2023-05-07T03:17:53;18.40;69.50
69932;DHT22;57243;52.064;5.116;2023-05-07T03:20:19;18.40;69.60
69932;DHT22;57243;52.064;5.116;2023-05-07T03:22:44;18.40;69.60
69932;DHT22;57243;52.064;5.116;2023-05-07T03:25:10;18.40;69.60
69932;DHT22;57243;52.064;5.116;2023-05-07T03:27:36;18.40;69.50
69932;DHT22;57243;52.064;5.116;2023-05-07T03:30:01;18.40;69.60
69932;DHT22;57243;52.064;5.116;2023-05-07T03:32:27;18.40;69.60
69932;DHT22;57243;52.064;5.116;2023-05-07T03:34:52;18.40;69.60
69932;DHT22;57243;52.064;5.116;2023-05-07T03:37:18;18.40;69.50
69932;DHT22;57243;52.064;5.116;2023-05-07T03:39:43;18.40;69.60
69932;DHT22;57243;52.064;5.116;2023-05-07T03:42:09;18.40;69.60
69932;DHT22;57243;52.064;5.116;2023-05-07T03:44:34;18.40;69.70
69932;DHT22;57243;52.064;5.116;2023-05-07T03:47:01;18.40;69.70
69932;DHT22;57243;52.064;5.116;2023-05-07T03:49:27;18.40;69.70
69932;DHT22;57243;52.064;5.116;2023-05-07T03:51:52;18.40;69.60
69932;DHT22;57243;52.064;5.116;2023-05-07T03:54:18;18.40;69.70
69932;DHT22;57243;52.064;5.116;2023-05-07T03:56:43;18.40;69.70
69932;DHT22;57243;52.064;5.116;2023-05-07T03:59:09;18.40;69.60
69932;DHT22;57243;52.064;5.116;2023-05-07T04:01:34;18.40;69.70
69932;DHT22;57243;52.064;5.116;2023-05-07T04:04:00;18.40;69.70
69932;DHT22;57243;52.064;5.116;2023-05-07T04:06:25;18.40;69.90
69932;DHT22;57243;52.064;5.116;2023-05-07T04:08:51;18.40;69.80
69932;DHT22;57243;52.064;5.116;2023-05-07T04:11:16;18.40;69.90
69932;DHT22;57243;52.064;5.116;2023-05-07T04:13:42;18.40;69.90
69932;DHT22;57243;52.064;5.116;2023-05-07T04:16:07;18.40;70.00
69932;DHT22;57243;52.064;5.116;2023-05-07T04:18:33;18.50;69.90
69932;DHT22;57243;52.064;5.116;2023-05-07T04:20:58;18.50;69.90
69932;DHT22;57243;52.064;5.116;2023-05-07T04:23:24;18.50;69.90
69932;DHT22;57243;52.064;5.116;2023-05-07T04:25:49;18.50;70.00
69932;DHT22;57243;52.064;5.116;2023-05-07T04:28:15;18.50;70.40
69932;DHT22;57243;52.064;5.116;2023-05-07T04:30:41;18.50;72.00
69932;DHT22;57243;52.064;5.116;2023-05-07T04:33:06;18.60;72.20
69932;DHT22;57243;52.064;5.116;2023-05-07T04:35:32;18.70;72.20
69932;DHT22;57243;52.064;5.116;2023-05-07T04:37:57;18.70;71.80
69932;DHT22;57243;52.064;5.116;2023-05-07T04:40:23;18.70;71.70
69932;DHT22;57243;52.064;5.116;2023-05-07T04:42:48;18.70;71.60
69932;DHT22;57243;52.064;5.116;2023-05-07T04:45:14;18.70;71.60
69932;DHT22;57243;52.064;5.116;2023-05-07T04:47:40;18.60;71.60
69932;DHT22;57243;52.064;5.116;2023-05-07T04:50:06;18.60;71.60
69932;DHT22;57243;52.064;5.116;2023-05-07T04:52:31;18.60;71.60
69932;DHT22;57243;52.064;5.116;2023-05-07T04:54:59;18.60;71.50
69932;DHT22;57243;52.064;5.116;2023-05-07T04:57:24;18.60;71.70
69932;DHT22;57243;52.064;5.116;2023-05-07T04:59:50;18.60;71.50
69932;DHT22;57243;52.064;5.116;2023-05-07T05:02:16;18.60;71.60
69932;DHT22;57243;52.064;5.116;2023-05-07T05:04:41;18.60;71.60
69932;DHT22;57243;52.064;5.116;2023-05-07T05:07:07;18.50;71.60
69932;DHT22;57243;52.064;5.116;2023-05-07T05:09:32;18.60;71.60
69932;DHT22;57243;52.064;5.116;2023-05-07T05:11:58;18.60;71.60
69932;DHT22;57243;52.064;5.116;2023-05-07T05:14:24;18.60;71.50
69932;DHT22;57243;52.064;5.116;2023-05-07T05:16:49;18.60;71.60
69932;DHT22;57243;52.064;5.116;2023-05-07T05:19:15;18.60;71.80
69932;DHT22;57243;52.064;5.116;2023-05-07T05:21:41;18.60;71.80
69932;DHT22;57243;52.064;5.116;2023-05-07T05:24:07;18.60;71.80
69932;DHT22;57243;52.064;5.116;2023-05-07T05:26:32;18.60;71.70
69932;DHT22;57243;52.064;5.116;2023-05-07T05:28:58;18.60;71.70
69932;DHT22;57243;52.064;5.116;2023-05-07T05:31:23;18.60;71.80
69932;DHT22;57243;52.064;5.116;2023-05-07T05:33:49;18.60;71.70
69932;DHT22;57243;52.064;5.116;2023-05-07T05:36:14;18.60;71.70
69932;DHT22;57243;52.064;5.116;2023-05-07T05:38:40;18.60;71.70
69932;DHT22;57243;52.064;5.116;2023-05-07T05:41:05;18.60;71.70
69932;DHT22;57243;52.064;5.116;2023-05-07T05:43:31;18.60;71.70
69932;DHT22;57243;52.064;5.116;2023-05-07T05:45:56;18.60;71.60
69932;DHT22;57243;52.064;5.116;2023-05-07T05:48:22;18.60;71.60
69932;DHT22;57243;52.064;5.116;2023-05-07T05:50:48;18.60;71.60
69932;DHT22;57243;52.064;5.116;2023-05-07T05:53:13;18.50;71.60
69932;DHT22;57243;52.064;5.116;2023-05-07T05:55:39;18.50;71.50
69932;DHT22;57243;52.064;5.116;2023-05-07T05:58:04;18.50;71.60
69932;DHT22;57243;52.064;5.116;2023-05-07T06:00:30;18.60;71.70
69932;DHT22;57243;52.064;5.116;2023-05-07T06:02:55;18.60;71.80
69932;DHT22;57243;52.064;5.116;2023-05-07T06:05:21;18.60;71.80
69932;DHT22;57243;52.064;5.116;2023-05-07T06:07:46;18.60;71.80
69932;DHT22;57243;52.064;5.116;2023-05-07T06:10:12;18.60;71.70
69932;DHT22;57243;52.064;5.116;2023-05-07T06:12:37;18.50;71.80
69932;DHT22;57243;52.064;5.116;2023-05-07T06:15:03;18.60;71.70
69932;DHT22;57243;52.064;5.116;2023-05-07T06:17:29;18.60;71.90
69932;DHT22;57243;52.064;5.116;2023-05-07T06:19:54;18.60;72.30
69932;DHT22;57243;52.064;5.116;2023-05-07T06:22:20;18.60;72.40
69932;DHT22;57243;52.064;5.116;2023-05-07T06:24:45;18.60;72.10
69932;DHT22;57243;52.064;5.116;2023-05-07T06:27:11;18.60;71.90
69932;DHT22;57243;52.064;5.116;2023-05-07T06:29:36;18.60;71.70
69932;DHT22;57243;52.064;5.116;2023-05-07T06:32:06;18.60;71.60
69932;DHT22;57243;52.064;5.116;2023-05-07T06:34:31;18.60;71.90
69932;DHT22;57243;52.064;5.116;2023-05-07T06:36:57;18.60;72.00
69932;DHT22;57243;52.064;5.116;2023-05-07T06:39:22;18.70;71.90
69932;DHT22;57243;52.064;5.116;2023-05-07T06:41:48;18.70;72.20
69932;DHT22;57243;52.064;5.116;2023-05-07T06:44:13;18.70;72.40
69932;DHT22;57243;52.064;5.116;2023-05-07T06:46:39;18.70;72.40
69932;DHT22;57243;52.064;5.116;2023-05-07T06:49:04;18.70;72.40
69932;DHT22;57243;52.064;5.116;2023-05-07T06:51:30;18.70;72.70
69932;DHT22;57243;52.064;5.116;2023-05-07T06:53:55;18.70;72.60
69932;DHT22;57243;52.064;5.116;2023-05-07T06:56:21;18.70;72.70
69932;DHT22;57243;52.064;5.116;2023-05-07T06:58:48;18.70;72.60
69932;DHT22;57243;52.064;5.116;2023-05-07T07:01:13;18.70;72.50
69932;DHT22;57243;52.064;5.116;2023-05-07T07:03:38;18.70;72.40
69932;DHT22;57243;52.064;5.116;2023-05-07T07:06:05;18.60;72.40
69932;DHT22;57243;52.064;5.116;2023-05-07T07:08:30;18.60;72.50
69932;DHT22;57243;52.064;5.116;2023-05-07T07:10:56;18.60;72.30
69932;DHT22;57243;52.064;5.116;2023-05-07T07:13:21;18.60;72.40
69932;DHT22;57243;52.064;5.116;2023-05-07T07:15:47;18.60;72.40
69932;DHT22;57243;52.064;5.116;2023-05-07T07:18:12;18.60;72.30
69932;DHT22;57243;52.064;5.116;2023-05-07T07:20:38;18.60;72.30
69932;DHT22;57243;52.064;5.116;2023-05-07T07:23:03;18.70;72.40
69932;DHT22;57243;52.064;5.116;2023-05-07T07:25:29;18.60;72.40
69932;DHT22;57243;52.064;5.116;2023-05-07T07:27:54;18.60;72.40
69932;DHT22;57243;52.064;5.116;2023-05-07T07:30:20;18.60;72.40
69932;DHT22;57243;52.064;5.116;2023-05-07T07:32:45;18.60;72.30
69932;DHT22;57243;52.064;5.116;2023-05-07T07:35:11;18.60;72.30
69932;DHT22;57243;52.064;5.116;2023-05-07T07:37:36;18.70;72.30
69932;DHT22;57243;52.064;5.116;2023-05-07T07:40:02;18.70;72.10
69932;DHT22;57243;52.064;5.116;2023-05-07T07:42:28;18.70;72.20
69932;DHT22;57243;52.064;5.116;2023-05-07T07:44:54;18.70;72.30
69932;DHT22;57243;52.064;5.116;2023-05-07T07:47:20;18.70;72.50
69932;DHT22;57243;52.064;5.116;2023-05-07T07:49:45;18.80;72.50
69932;DHT22;57243;52.064;5.116;2023-05-07T07:52:11;18.70;72.50
69932;DHT22;57243;52.064;5.116;2023-05-07T07:54:36;18.70;72.60
69932;DHT22;57243;52.064;5.116;2023-05-07T07:57:02;18.70;72.60
69932;DHT22;57243;52.064;5.116;2023-05-07T07:59:27;18.70;72.60
69932;DHT22;57243;52.064;5.116;2023-05-07T08:01:53;18.70;72.60
69932;DHT22;57243;52.064;5.116;2023-05-07T08:04:21;18.70;72.70
69932;DHT22;57243;52.064;5.116;2023-05-07T08:06:46;18.70;73.00
69932;DHT22;57243;52.064;5.116;2023-05-07T08:09:12;18.80;72.70
69932;DHT22;57243;52.064;5.116;2023-05-07T08:11:38;18.80;72.70
69932;DHT22;57243;52.064;5.116;2023-05-07T08:14:03;18.80;72.80
69932;DHT22;57243;52.064;5.116;2023-05-07T08:16:29;18.80;72.80
69932;DHT22;57243;52.064;5.116;2023-05-07T08:18:55;18.70;72.80
69932;DHT22;57243;52.064;5.116;2023-05-07T08:21:20;18.70;72.80
69932;DHT22;57243;52.064;5.116;2023-05-07T08:23:46;18.70;72.70
69932;DHT22;57243;52.064;5.116;2023-05-07T08:26:11;18.70;72.70
69932;DHT22;57243;52.064;5.116;2023-05-07T08:28:37;18.70;72.70
69932;DHT22;57243;52.064;5.116;2023-05-07T08:31:02;18.70;72.70
69932;DHT22;57243;52.064;5.116;2023-05-07T08:33:28;18.70;72.70
69932;DHT22;57243;52.064;5.116;2023-05-07T08:35:53;18.70;72.70
69932;DHT22;57243;52.064;5.116;2023-05-07T08:38:19;18.70;72.70
69932;DHT22;57243;52.064;5.116;2023-05-07T08:40:44;18.70;72.70
69932;DHT22;57243;52.064;5.116;2023-05-07T08:43:13;18.70;72.70
69932;DHT22;57243;52.064;5.116;2023-05-07T08:45:39;18.70;72.60
69932;DHT22;57243;52.064;5.116;2023-05-07T08:48:08;18.70;72.50
69932;DHT22;57243;52.064;5.116;2023-05-07T08:50:35;18.70;72.60
69932;DHT22;57243;52.064;5.116;2023-05-07T08:53:02;18.70;72.50
69932;DHT22;57243;52.064;5.116;2023-05-07T08:55:28;18.70;72.50
69932;DHT22;57243;52.064;5.116;2023-05-07T08:57:53;18.70;72.50
69932;DHT22;57243;52.064;5.116;2023-05-07T09:00:19;18.70;72.60
69932;DHT22;57243;52.064;5.116;2023-05-07T09:02:44;18.70;72.50
69932;DHT22;57243;52.064;5.116;2023-05-07T09:05:10;18.70;72.50
69932;DHT22;57243;52.064;5.116;2023-05-07T09:07:36;18.70;72.40
69932;DHT22;57243;52.064;5.116;2023-05-07T09:10:02;18.70;72.40
69932;DHT22;57243;52.064;5.116;2023-05-07T09:12:29;18.70;72.40
69932;DHT22;57243;52.064;5.116;2023-05-07T09:14:55;18.70;72.40
69932;DHT22;57243;52.064;5.116;2023-05-07T09:17:20;18.70;72.40
69932;DHT22;57243;52.064;5.116;2023-05-07T09:19:46;18.70;72.50
69932;DHT22;57243;52.064;5.116;2023-05-07T09:22:12;18.70;72.40
69932;DHT22;57243;52.064;5.116;2023-05-07T09:24:37;18.70;72.50
69932;DHT22;57243;52.064;5.116;2023-05-07T09:27:03;18.70;72.40
69932;DHT22;57243;52.064;5.116;2023-05-07T09:29:29;18.70;72.50
69932;DHT22;57243;52.064;5.116;2023-05-07T09:32:00;18.70;72.50
69932;DHT22;57243;52.064;5.116;2023-05-07T09:34:26;18.70;72.50
69932;DHT22;57243;52.064;5.116;2023-05-07T09:36:51;18.70;72.50
69932;DHT22;57243;52.064;5.116;2023-05-07T09:39:18;18.80;72.90
69932;DHT22;57243;52.064;5.116;2023-05-07T09:41:45;18.90;73.30
69932;DHT22;57243;52.064;5.116;2023-05-07T09:44:11;18.90;73.50
69932;DHT22;57243;52.064;5.116;2023-05-07T09:46:36;18.90;73.60
69932;DHT22;57243;52.064;5.116;2023-05-07T09:49:03;18.90;73.80
69932;DHT22;57243;52.064;5.116;2023-05-07T09:51:39;18.90;74.00
69932;DHT22;57243;52.064;5.116;2023-05-07T09:54:06;18.80;74.00
69932;DHT22;57243;52.064;5.116;2023-05-07T09:56:32;18.80;74.10
69932;DHT22;57243;52.064;5.116;2023-05-07T09:59:00;18.80;73.80
69932;DHT22;57243;52.064;5.116;2023-05-07T10:01:26;18.80;73.60
69932;DHT22;57243;52.064;5.116;2023-05-07T10:03:52;18.80;73.40
69932;DHT22;57243;52.064;5.116;2023-05-07T10:06:19;18.80;73.40
69932;DHT22;57243;52.064;5.116;2023-05-07T10:08:45;18.80;73.50
69932;DHT22;57243;52.064;5.116;2023-05-07T10:11:10;18.80;73.40
69932;DHT22;57243;52.064;5.116;2023-05-07T10:13:36;18.80;73.50
69932;DHT22;57243;52.064;5.116;2023-05-07T10:16:06;18.80;73.40
69932;DHT22;57243;52.064;5.116;2023-05-07T10:18:32;18.70;73.50
69932;DHT22;57243;52.064;5.116;2023-05-07T10:23:57;18.80;73.60
69932;DHT22;57243;52.064;5.116;2023-05-07T10:26:23;18.80;73.40
69932;DHT22;57243;52.064;5.116;2023-05-07T10:28:50;18.80;73.50
69932;DHT22;57243;52.064;5.116;2023-05-07T10:33:56;18.80;73.70
69932;DHT22;57243;52.064;5.116;2023-05-07T10:36:22;18.80;73.70
69932;DHT22;57243;52.064;5.116;2023-05-07T10:38:48;18.80;73.70
69932;DHT22;57243;52.064;5.116;2023-05-07T10:41:13;18.80;73.80
69932;DHT22;57243;52.064;5.116;2023-05-07T10:43:41;18.80;73.80
69932;DHT22;57243;52.064;5.116;2023-05-07T10:46:17;18.80;73.80
69932;DHT22;57243;52.064;5.116;2023-05-07T10:51:31;18.80;73.70
69932;DHT22;57243;52.064;5.116;2023-05-07T10:56:39;18.80;73.50
69932;DHT22;57243;52.064;5.116;2023-05-07T11:02:01;18.80;73.50
69932;DHT22;57243;52.064;5.116;2023-05-07T11:04:31;18.80;73.50
69932;DHT22;57243;52.064;5.116;2023-05-07T11:12:16;18.80;73.30
69932;DHT22;57243;52.064;5.116;2023-05-07T11:17:11;19.00;74.70
69932;DHT22;57243;52.064;5.116;2023-05-07T11:25:06;19.20;75.00
69932;DHT22;57243;52.064;5.116;2023-05-07T11:27:32;19.10;74.90
69932;DHT22;57243;52.064;5.116;2023-05-07T11:29:58;19.20;74.70
69932;DHT22;57243;52.064;5.116;2023-05-07T11:32:27;19.10;74.60
69932;DHT22;57243;52.064;5.116;2023-05-07T11:34:53;19.10;74.60
69932;DHT22;57243;52.064;5.116;2023-05-07T11:37:20;19.10;74.60
69932;DHT22;57243;52.064;5.116;2023-05-07T11:39:46;19.10;74.40
69932;DHT22;57243;52.064;5.116;2023-05-07T11:42:30;19.10;74.30
69932;DHT22;57243;52.064;5.116;2023-05-07T11:44:56;19.10;74.30
69932;DHT22;57243;52.064;5.116;2023-05-07T11:47:22;19.10;74.20
69932;DHT22;57243;52.064;5.116;2023-05-07T11:49:48;19.10;74.10
69932;DHT22;57243;52.064;5.116;2023-05-07T11:52:14;19.10;74.00
69932;DHT22;57243;52.064;5.116;2023-05-07T11:54:39;19.10;74.00
69932;DHT22;57243;52.064;5.116;2023-05-07T11:57:05;19.10;73.90
69932;DHT22;57243;52.064;5.116;2023-05-07T11:59:39;19.10;73.90
69932;DHT22;57243;52.064;5.116;2023-05-07T12:02:06;19.10;73.80
69932;DHT22;57243;52.064;5.116;2023-05-07T12:04:31;19.10;73.90
69932;DHT22;57243;52.064;5.116;2023-05-07T12:06:57;19.10;73.90
69932;DHT22;57243;52.064;5.116;2023-05-07T12:09:22;19.10;73.90
69932;DHT22;57243;52.064;5.116;2023-05-07T12:11:48;19.10;73.80
69932;DHT22;57243;52.064;5.116;2023-05-07T12:14:13;19.10;73.90
69932;DHT22;57243;52.064;5.116;2023-05-07T12:16:41;19.10;73.80
69932;DHT22;57243;52.064;5.116;2023-05-07T12:19:07;19.10;73.70
69932;DHT22;57243;52.064;5.116;2023-05-07T12:21:34;19.10;73.70
69932;DHT22;57243;52.064;5.116;2023-05-07T12:23:59;19.10;73.80
69932;DHT22;57243;52.064;5.116;2023-05-07T12:26:25;19.10;73.80
69932;DHT22;57243;52.064;5.116;2023-05-07T12:28:51;19.10;73.90
69932;DHT22;57243;52.064;5.116;2023-05-07T12:31:16;19.10;73.80
69932;DHT22;57243;52.064;5.116;2023-05-07T12:33:42;19.10;73.80
69932;DHT22;57243;52.064;5.116;2023-05-07T12:36:07;19.10;73.80
69932;DHT22;57243;52.064;5.116;2023-05-07T12:38:39;19.10;73.80
69932;DHT22;57243;52.064;5.116;2023-05-07T12:41:07;19.10;73.80
69932;DHT22;57243;52.064;5.116;2023-05-07T12:43:32;19.10;73.70
69932;DHT22;57243;52.064;5.116;2023-05-07T12:46:05;19.10;73.70
69932;DHT22;57243;52.064;5.116;2023-05-07T12:48:31;19.10;73.60
69932;DHT22;57243;52.064;5.116;2023-05-07T12:50:58;19.10;73.70
69932;DHT22;57243;52.064;5.116;2023-05-07T12:53:24;19.10;73.60
69932;DHT22;57243;52.064;5.116;2023-05-07T12:55:51;19.10;73.50
69932;DHT22;57243;52.064;5.116;2023-05-07T12:58:17;19.10;73.40
69932;DHT22;57243;52.064;5.116;2023-05-07T13:00:43;19.10;73.30
69932;DHT22;57243;52.064;5.116;2023-05-07T13:03:09;19.10;73.40
69932;DHT22;57243;52.064;5.116;2023-05-07T13:05:36;19.10;73.30
69932;DHT22;57243;52.064;5.116;2023-05-07T13:08:01;19.10;73.40
69932;DHT22;57243;52.064;5.116;2023-05-07T13:10:27;19.10;73.40
69932;DHT22;57243;52.064;5.116;2023-05-07T13:12:52;19.10;73.30
69932;DHT22;57243;52.064;5.116;2023-05-07T13:15:18;19.10;73.30
69932;DHT22;57243;52.064;5.116;2023-05-07T13:17:44;19.10;73.20
69932;DHT22;57243;52.064;5.116;2023-05-07T13:20:10;19.20;73.50
69932;DHT22;57243;52.064;5.116;2023-05-07T13:22:36;19.20;73.30
69932;DHT22;57243;52.064;5.116;2023-05-07T13:25:02;19.20;73.30
69932;DHT22;57243;52.064;5.116;2023-05-07T13:27:28;19.20;73.60
69932;DHT22;57243;52.064;5.116;2023-05-07T13:29:56;19.10;73.70
69932;DHT22;57243;52.064;5.116;2023-05-07T13:32:21;19.10;73.80
69932;DHT22;57243;52.064;5.116;2023-05-07T13:34:47;19.10;73.80
69932;DHT22;57243;52.064;5.116;2023-05-07T13:37:12;19.10;73.80
69932;DHT22;57243;52.064;5.116;2023-05-07T13:39:38;19.10;73.90
69932;DHT22;57243;52.064;5.116;2023-05-07T13:42:03;19.10;73.90
69932;DHT22;57243;52.064;5.116;2023-05-07T13:44:29;19.10;73.90
69932;DHT22;57243;52.064;5.116;2023-05-07T13:46:54;19.10;73.90
69932;DHT22;57243;52.064;5.116;2023-05-07T13:49:20;19.00;73.90
69932;DHT22;57243;52.064;5.116;2023-05-07T13:51:45;19.10;73.90
69932;DHT22;57243;52.064;5.116;2023-05-07T13:54:11;19.00;73.90
69932;DHT22;57243;52.064;5.116;2023-05-07T13:56:37;19.10;74.20
69932;DHT22;57243;52.064;5.116;2023-05-07T13:59:02;19.20;74.10
69932;DHT22;57243;52.064;5.116;2023-05-07T14:01:28;19.20;73.50
69932;DHT22;57243;52.064;5.116;2023-05-07T14:03:53;19.20;73.40
69932;DHT22;57243;52.064;5.116;2023-05-07T14:06:19;19.20;73.50
69932;DHT22;57243;52.064;5.116;2023-05-07T14:08:45;19.20;73.40
69932;DHT22;57243;52.064;5.116;2023-05-07T14:11:10;19.20;73.30
69932;DHT22;57243;52.064;5.116;2023-05-07T14:13:35;19.30;72.50
69932;DHT22;57243;52.064;5.116;2023-05-07T14:16:01;19.30;72.00
69932;DHT22;57243;52.064;5.116;2023-05-07T14:18:27;19.30;71.80
69932;DHT22;57243;52.064;5.116;2023-05-07T14:20:54;19.30;71.90
69932;DHT22;57243;52.064;5.116;2023-05-07T14:23:19;19.30;71.80
69932;DHT22;57243;52.064;5.116;2023-05-07T14:25:47;19.30;71.80
69932;DHT22;57243;52.064;5.116;2023-05-07T14:28:13;19.30;71.70
69932;DHT22;57243;52.064;5.116;2023-05-07T14:30:38;19.30;71.70
69932;DHT22;57243;52.064;5.116;2023-05-07T14:33:04;19.30;71.60
69932;DHT22;57243;52.064;5.116;2023-05-07T14:35:29;19.30;71.50
69932;DHT22;57243;52.064;5.116;2023-05-07T14:37:55;19.30;71.40
69932;DHT22;57243;52.064;5.116;2023-05-07T14:40:20;19.20;71.40
69932;DHT22;57243;52.064;5.116;2023-05-07T14:42:46;19.20;71.40
69932;DHT22;57243;52.064;5.116;2023-05-07T14:45:11;19.20;71.40
69932;DHT22;57243;52.064;5.116;2023-05-07T14:47:37;19.20;71.30
69932;DHT22;57243;52.064;5.116;2023-05-07T14:50:02;19.20;71.30
69932;DHT22;57243;52.064;5.116;2023-05-07T14:52:28;19.20;71.10
69932;DHT22;57243;52.064;5.116;2023-05-07T14:54:53;19.20;71.20
69932;DHT22;57243;52.064;5.116;2023-05-07T14:57:19;19.20;71.20
69932;DHT22;57243;52.064;5.116;2023-05-07T14:59:44;19.20;71.20
69932;DHT22;57243;52.064;5.116;2023-05-07T15:02:11;19.20;71.20
69932;DHT22;57243;52.064;5.116;2023-05-07T15:04:37;19.20;71.20
69932;DHT22;57243;52.064;5.116;2023-05-07T15:07:03;19.20;71.20
69932;DHT22;57243;52.064;5.116;2023-05-07T15:09:29;19.20;71.10
69932;DHT22;57243;52.064;5.116;2023-05-07T15:11:55;19.20;71.10
69932;DHT22;57243;52.064;5.116;2023-05-07T15:14:20;19.20;71.00
69932;DHT22;57243;52.064;5.116;2023-05-07T15:16:47;19.20;70.90
69932;DHT22;57243;52.064;5.116;2023-05-07T15:19:13;19.20;70.90
69932;DHT22;57243;52.064;5.116;2023-05-07T15:21:40;19.10;71.20
69932;DHT22;57243;52.064;5.116;2023-05-07T15:24:05;19.10;71.50
69932;DHT22;57243;52.064;5.116;2023-05-07T15:26:31;19.10;71.90
69932;DHT22;57243;52.064;5.116;2023-05-07T15:28:56;19.10;72.10
69932;DHT22;57243;52.064;5.116;2023-05-07T15:31:23;19.10;71.90
69932;DHT22;57243;52.064;5.116;2023-05-07T15:33:48;19.10;71.80
69932;DHT22;57243;52.064;5.116;2023-05-07T15:36:17;19.10;71.80
69932;DHT22;57243;52.064;5.116;2023-05-07T15:38:42;19.10;71.70
69932;DHT22;57243;52.064;5.116;2023-05-07T15:41:08;19.10;72.00
69932;DHT22;57243;52.064;5.116;2023-05-07T15:43:38;19.10;72.30
69932;DHT22;57243;52.064;5.116;2023-05-07T15:46:08;19.10;72.40
69932;DHT22;57243;52.064;5.116;2023-05-07T15:48:33;19.10;72.30
69932;DHT22;57243;52.064;5.116;2023-05-07T15:50:59;19.10;72.30